Time,TemperatureF,DewpointF,PressureIn,WindDirection,WindDirectionDegrees,WindSpeedMPH,WindSpeedGustMPH,Humidity,HourlyPrecipIn,Conditions,Clouds,dailyrainin,SoftwareType,DateUTC
2013-04-12 00:00:00,28.1,25.8,29.86,East,98,18.0,20.0,91,0.00,,,0.00,VWS V14.01,2013-04-12 04:00:00,
2013-04-12 00:01:00,28.1,25.8,29.87,ESE,120,27.0,27.0,91,0.00,,,0.00,VWS V14.01,2013-04-12 04:01:00,
2013-04-12 00:06:00,28.1,25.8,29.86,East,83,22.0,27.0,91,0.00,,,0.00,VWS V14.01,2013-04-12 04:06:00,
2013-04-12 00:11:00,28.0,25.7,29.86,ESE,104,18.0,19.0,91,0.00,,,0.00,VWS V14.01,2013-04-12 04:11:00,
2013-04-12 00:16:00,28.0,25.7,29.86,ESE,109,23.0,24.0,91,0.00,,,0.00,VWS V14.01,2013-04-12 04:16:00,
2013-04-12 00:21:00,28.0,25.7,29.85,East,87,24.0,26.0,91,0.00,,,0.00,VWS V14.01,2013-04-12 04:21:00,
2013-04-12 00:26:00,28.0,25.7,29.85,ESE,113,14.0,17.0,91,0.00,,,0.00,VWS V14.01,2013-04-12 04:26:00,
2013-04-12 00:32:00,27.9,25.6,29.85,East,96,17.0,26.0,91,0.00,,,0.00,VWS V14.01,2013-04-12 04:32:00,
2013-04-12 00:37:00,27.9,25.4,29.85,ESE,117,24.0,24.0,90,0.00,,,0.00,VWS V14.01,2013-04-12 04:37:00,
2013-04-12 00:42:00,27.8,25.2,29.84,ESE,103,12.0,15.0,90,0.00,,,0.00,VWS V14.01,2013-04-12 04:42:00,
2013-04-12 00:47:00,27.8,25.5,29.84,ESE,109,28.0,30.0,91,0.00,,,0.00,VWS V14.01,2013-04-12 04:47:00,
2013-04-12 00:52:00,27.9,25.4,29.83,ESE,111,17.0,23.0,90,0.00,,,0.00,VWS V14.01,2013-04-12 04:52:00,
2013-04-12 00:57:00,27.9,25.4,29.85,East,101,24.0,24.0,90,0.00,,,0.00,VWS V14.01,2013-04-12 04:57:00,
2013-04-12 01:02:00,28.0,25.5,29.83,SE,130,18.0,20.0,90,0.00,,,0.00,VWS V14.01,2013-04-12 05:02:00,
2013-04-12 01:07:00,28.0,25.5,29.83,East,96,19.0,31.0,90,0.00,,,0.00,VWS V14.01,2013-04-12 05:07:00,
2013-04-12 01:12:00,28.0,25.2,29.82,SE,130,14.0,17.0,89,0.00,,,0.00,VWS V14.01,2013-04-12 05:12:00,
2013-04-12 01:17:00,27.8,25.2,29.82,ESE,123,22.0,27.0,90,0.00,,,0.00,VWS V14.01,2013-04-12 05:17:00,
2013-04-12 01:22:00,27.6,25.3,29.82,East,90,21.0,30.0,91,0.00,,,0.00,VWS V14.01,2013-04-12 05:22:00,
2013-04-12 01:27:00,27.6,25.3,29.81,ESE,103,16.0,22.0,91,0.00,,,0.00,VWS V14.01,2013-04-12 05:27:00,
2013-04-12 01:32:00,27.6,25.3,29.81,ESE,105,12.0,21.0,91,0.00,,,0.00,VWS V14.01,2013-04-12 05:32:00,
2013-04-12 01:37:00,27.5,25.2,29.81,ESE,123,15.0,18.0,91,0.00,,,0.00,VWS V14.01,2013-04-12 05:37:00,
2013-04-12 01:42:00,27.5,25.2,29.81,East,84,24.0,37.0,91,0.00,,,0.00,VWS V14.01,2013-04-12 05:42:00,
2013-04-12 01:47:00,27.5,25.2,29.82,ESE,108,19.0,21.0,91,0.00,,,0.00,VWS V14.01,2013-04-12 05:47:00,
2013-04-12 01:52:00,27.5,25.2,29.81,East,94,18.0,23.0,91,0.00,,,0.00,VWS V14.01,2013-04-12 05:52:00,
2013-04-12 01:57:00,27.5,25.2,29.81,SE,124,17.0,23.0,91,0.00,,,0.00,VWS V14.01,2013-04-12 05:57:00,
2013-04-12 02:02:00,27.4,25.1,29.80,East,96,22.0,27.0,91,0.00,,,0.00,VWS V14.01,2013-04-12 06:02:00,
2013-04-12 02:07:00,27.3,25.0,29.80,ESE,116,12.0,17.0,91,0.00,,,0.00,VWS V14.01,2013-04-12 06:07:00,
2013-04-12 02:12:00,27.3,25.0,29.78,ESE,107,31.0,31.0,91,0.00,,,0.00,VWS V14.01,2013-04-12 06:12:00,
2013-04-12 02:17:00,27.3,25.0,29.78,East,99,17.0,19.0,91,0.00,,,0.00,VWS V14.01,2013-04-12 06:17:00,
2013-04-12 02:22:00,27.3,25.0,29.77,East,98,18.0,21.0,91,0.00,,,0.00,VWS V14.01,2013-04-12 06:22:00,
2013-04-12 02:27:00,27.3,25.3,29.77,East,101,17.0,17.0,92,0.00,,,0.00,VWS V14.01,2013-04-12 06:27:00,
2013-04-12 02:32:00,27.4,25.1,29.78,East,100,33.0,33.0,91,0.00,,,0.00,VWS V14.01,2013-04-12 06:32:00,
2013-04-12 02:37:00,27.5,25.2,29.77,ESE,111,19.0,19.0,91,0.00,,,0.00,VWS V14.01,2013-04-12 06:37:00,
2013-04-12 02:42:00,27.5,25.2,29.77,East,101,23.0,24.0,91,0.00,,,0.00,VWS V14.01,2013-04-12 06:42:00,
2013-04-12 02:47:00,27.5,25.2,29.76,SE,126,21.0,28.0,91,0.00,,,0.00,VWS V14.01,2013-04-12 06:47:00,
2013-04-12 02:52:00,27.5,25.2,29.76,ESE,111,17.0,17.0,91,0.00,,,0.00,VWS V14.01,2013-04-12 06:52:00,
2013-04-12 02:57:00,27.5,25.2,29.76,ESE,109,20.0,24.0,91,0.00,,,0.00,VWS V14.01,2013-04-12 06:57:00,
2013-04-12 03:02:00,27.6,25.3,29.76,SE,140,18.0,19.0,91,0.00,,,0.00,VWS V14.01,2013-04-12 07:02:00,
2013-04-12 03:09:00,27.6,25.3,29.76,SE,128,18.0,20.0,91,0.00,,,0.00,VWS V14.01,2013-04-12 07:09:00,
2013-04-12 03:17:00,27.6,25.3,29.75,ESE,112,14.0,14.0,91,0.00,,,0.00,VWS V14.01,2013-04-12 07:17:00,
2013-04-12 03:22:00,27.6,25.1,29.75,ESE,113,24.0,25.0,90,0.00,,,0.00,VWS V14.01,2013-04-12 07:22:00,
2013-04-12 03:27:00,27.6,25.3,29.75,ESE,107,27.0,27.0,91,0.00,,,0.00,VWS V14.01,2013-04-12 07:27:00,
2013-04-12 03:32:00,27.5,25.2,29.75,ESE,120,13.0,21.0,91,0.00,,,0.00,VWS V14.01,2013-04-12 07:32:00,
2013-04-12 03:37:00,27.5,25.2,29.75,ESE,111,11.0,15.0,91,0.00,,,0.00,VWS V14.01,2013-04-12 07:37:00,
2013-04-12 03:42:00,27.4,25.1,29.76,ESE,114,16.0,20.0,91,0.00,,,0.00,VWS V14.01,2013-04-12 07:42:00,
2013-04-12 03:47:00,27.4,25.1,29.75,ESE,109,13.0,16.0,91,0.00,,,0.00,VWS V14.01,2013-04-12 07:47:00,
2013-04-12 03:52:00,27.4,25.1,29.75,ESE,109,18.0,18.0,91,0.00,,,0.00,VWS V14.01,2013-04-12 07:52:00,
2013-04-12 03:57:00,27.4,25.1,29.75,ESE,117,15.0,15.0,91,0.00,,,0.00,VWS V14.01,2013-04-12 07:57:00,
2013-04-12 04:02:00,27.4,25.1,29.75,East,100,16.0,17.0,91,0.00,,,0.00,VWS V14.01,2013-04-12 08:02:00,
2013-04-12 04:07:00,27.4,25.1,29.75,ESE,109,14.0,18.0,91,0.00,,,0.00,VWS V14.01,2013-04-12 08:07:00,
2013-04-12 04:12:00,27.3,25.3,29.74,ESE,107,15.0,15.0,92,0.00,,,0.00,VWS V14.01,2013-04-12 08:12:00,
2013-04-12 04:17:00,27.3,25.3,29.74,SE,130,19.0,23.0,92,0.00,,,0.00,VWS V14.01,2013-04-12 08:17:00,
2013-04-12 04:22:00,27.3,25.3,29.73,ESE,111,23.0,23.0,92,0.00,,,0.00,VWS V14.01,2013-04-12 08:22:00,
2013-04-12 04:27:00,27.1,25.1,29.73,ESE,123,16.0,23.0,92,0.00,,,0.00,VWS V14.01,2013-04-12 08:27:00,
2013-04-12 04:32:00,26.9,24.9,29.73,ESE,109,24.0,25.0,92,0.00,,,0.00,VWS V14.01,2013-04-12 08:32:00,
2013-04-12 04:37:00,26.9,25.1,29.72,SE,135,16.0,23.0,93,0.00,,,0.00,VWS V14.01,2013-04-12 08:37:00,
2013-04-12 04:42:00,26.9,25.1,29.72,ESE,107,16.0,29.0,93,0.00,,,0.00,VWS V14.01,2013-04-12 08:42:00,
2013-04-12 04:47:00,26.9,25.1,29.71,ESE,110,27.0,27.0,93,0.00,,,0.00,VWS V14.01,2013-04-12 08:47:00,
2013-04-12 04:52:00,26.9,25.1,29.71,ESE,105,13.0,19.0,93,0.00,,,0.00,VWS V14.01,2013-04-12 08:52:00,
2013-04-12 04:57:00,26.9,25.1,29.72,ENE,75,18.0,18.0,93,0.00,,,0.00,VWS V14.01,2013-04-12 08:57:00,
2013-04-12 05:02:00,26.9,25.1,29.72,ESE,103,25.0,25.0,93,0.00,,,0.00,VWS V14.01,2013-04-12 09:02:00,
2013-04-12 05:07:00,27.0,25.2,29.72,ESE,106,15.0,19.0,93,0.00,,,0.00,VWS V14.01,2013-04-12 09:07:00,
2013-04-12 05:12:00,26.9,25.1,29.72,East,93,11.0,11.0,93,0.00,,,0.00,VWS V14.01,2013-04-12 09:12:00,
2013-04-12 05:17:00,26.9,25.1,29.72,East,99,17.0,19.0,93,0.00,,,0.00,VWS V14.01,2013-04-12 09:17:00,
2013-04-12 05:22:00,26.9,25.4,29.72,ESE,114,11.0,12.0,94,0.00,,,0.00,VWS V14.01,2013-04-12 09:22:00,
2013-04-12 05:27:00,26.9,25.1,29.72,ESE,110,12.0,12.0,93,0.00,,,0.00,VWS V14.01,2013-04-12 09:27:00,
2013-04-12 05:32:00,27.0,25.2,29.72,ESE,107,19.0,19.0,93,0.00,,,0.00,VWS V14.01,2013-04-12 09:32:00,
2013-04-12 05:38:00,27.0,25.2,29.70,ESE,104,16.0,18.0,93,0.00,,,0.00,VWS V14.01,2013-04-12 09:38:00,
2013-04-12 05:43:00,27.1,25.4,29.70,SE,128,19.0,20.0,93,0.00,,,0.00,VWS V14.01,2013-04-12 09:43:00,
2013-04-12 05:48:00,27.1,25.4,29.70,East,96,15.0,16.0,93,0.00,,,0.00,VWS V14.01,2013-04-12 09:48:00,
2013-04-12 05:53:00,27.2,25.5,29.70,East,93,10.0,15.0,93,0.00,,,0.00,VWS V14.01,2013-04-12 09:53:00,
2013-04-12 05:58:00,27.2,25.5,29.69,ESE,115,16.0,17.0,93,0.00,,,0.00,VWS V14.01,2013-04-12 09:58:00,
2013-04-12 06:03:00,27.3,25.5,29.69,East,100,18.0,22.0,93,0.00,,,0.00,VWS V14.01,2013-04-12 10:03:00,
2013-04-12 06:08:00,27.3,25.5,29.69,ESE,117,15.0,20.0,93,0.00,,,0.00,VWS V14.01,2013-04-12 10:08:00,
2013-04-12 06:13:00,27.4,25.4,29.69,East,94,9.0,17.0,92,0.00,,,0.00,VWS V14.01,2013-04-12 10:13:00,
2013-04-12 06:18:00,27.3,25.3,29.69,ESE,105,20.0,20.0,92,0.00,,,0.00,VWS V14.01,2013-04-12 10:18:00,
2013-04-12 06:23:00,27.5,25.5,29.69,ESE,105,11.0,12.0,92,0.00,,,0.00,VWS V14.01,2013-04-12 10:23:00,
2013-04-12 06:28:00,27.5,25.5,29.68,ESE,108,26.0,26.0,92,0.00,,,0.00,VWS V14.01,2013-04-12 10:28:00,
2013-04-12 06:33:00,27.6,25.6,29.69,East,94,15.0,15.0,92,0.00,,,0.00,VWS V14.01,2013-04-12 10:33:00,
2013-04-12 06:38:00,27.6,25.6,29.69,East,92,10.0,11.0,92,0.00,,,0.00,VWS V14.01,2013-04-12 10:38:00,
2013-04-12 06:43:00,27.6,25.6,29.69,ESE,115,16.0,16.0,92,0.00,,,0.00,VWS V14.01,2013-04-12 10:43:00,
2013-04-12 06:48:00,27.6,25.6,29.68,ESE,119,21.0,24.0,92,0.00,,,0.00,VWS V14.01,2013-04-12 10:48:00,
2013-04-12 06:53:00,27.6,25.6,29.68,East,92,25.0,25.0,92,0.00,,,0.00,VWS V14.01,2013-04-12 10:53:00,
2013-04-12 06:58:00,27.7,25.7,29.68,ENE,76,10.0,19.0,92,0.00,,,0.00,VWS V14.01,2013-04-12 10:58:00,
2013-04-12 07:03:00,27.8,25.8,29.68,East,92,17.0,18.0,92,0.00,,,0.00,VWS V14.01,2013-04-12 11:03:00,
2013-04-12 07:08:00,27.8,25.8,29.68,ESE,103,11.0,14.0,92,0.00,,,0.00,VWS V14.01,2013-04-12 11:08:00,
2013-04-12 07:13:00,27.8,25.8,29.68,ESE,117,14.0,18.0,92,0.00,,,0.00,VWS V14.01,2013-04-12 11:13:00,
2013-04-12 07:18:00,27.8,25.8,29.68,ESE,108,9.0,10.0,92,0.00,,,0.00,VWS V14.01,2013-04-12 11:18:00,
2013-04-12 07:23:00,27.8,25.8,29.68,ESE,113,17.0,18.0,92,0.00,,,0.00,VWS V14.01,2013-04-12 11:23:00,
2013-04-12 07:28:00,27.8,25.8,29.68,ESE,107,17.0,17.0,92,0.00,,,0.00,VWS V14.01,2013-04-12 11:28:00,
2013-04-12 07:34:00,27.8,25.8,29.68,ESE,107,12.0,14.0,92,0.00,,,0.00,VWS V14.01,2013-04-12 11:34:00,
2013-04-12 07:38:00,27.9,25.9,29.68,ESE,102,11.0,12.0,92,0.00,,,0.00,VWS V14.01,2013-04-12 11:38:00,
2013-04-12 07:43:00,27.9,25.9,29.68,ESE,102,15.0,20.0,92,0.00,,,0.00,VWS V14.01,2013-04-12 11:43:00,
2013-04-12 07:49:00,28.0,25.7,29.68,East,91,9.0,9.0,91,0.00,,,0.00,VWS V14.01,2013-04-12 11:49:00,
2013-04-12 07:54:00,28.0,26.0,29.67,ESE,122,13.0,18.0,92,0.00,,,0.00,VWS V14.01,2013-04-12 11:54:00,
2013-04-12 07:59:00,28.1,26.1,29.68,East,98,15.0,18.0,92,0.00,,,0.00,VWS V14.01,2013-04-12 11:59:00,
2013-04-12 08:04:00,28.1,25.8,29.68,SE,132,19.0,19.0,91,0.00,,,0.00,VWS V14.01,2013-04-12 12:04:00,
2013-04-12 08:09:00,28.1,25.8,29.68,ESE,107,8.0,10.0,91,0.00,,,0.00,VWS V14.01,2013-04-12 12:09:00,
2013-04-12 08:14:00,28.1,25.8,29.69,East,85,14.0,16.0,91,0.00,,,0.00,VWS V14.01,2013-04-12 12:14:00,
2013-04-12 08:19:00,28.1,25.8,29.68,ESE,113,9.0,9.0,91,0.00,,,0.00,VWS V14.01,2013-04-12 12:19:00,
2013-04-12 08:24:00,28.2,25.9,29.67,ESE,111,19.0,19.0,91,0.00,,,0.00,VWS V14.01,2013-04-12 12:24:00,
2013-04-12 08:29:00,28.2,25.9,29.67,ENE,76,16.0,16.0,91,0.00,,,0.00,VWS V14.01,2013-04-12 12:29:00,
2013-04-12 08:34:00,28.1,25.8,29.67,ESE,106,10.0,13.0,91,0.00,,,0.00,VWS V14.01,2013-04-12 12:34:00,
2013-04-12 08:39:00,28.1,25.8,29.67,ESE,108,15.0,18.0,91,0.00,,,0.00,VWS V14.01,2013-04-12 12:39:00,
2013-04-12 08:44:00,28.1,25.8,29.66,East,97,13.0,21.0,91,0.00,,,0.00,VWS V14.01,2013-04-12 12:44:00,
2013-04-12 08:49:00,28.1,25.8,29.67,East,99,10.0,15.0,91,0.00,,,0.00,VWS V14.01,2013-04-12 12:49:00,
2013-04-12 08:54:00,28.2,26.2,29.67,East,90,10.0,15.0,92,0.00,,,0.00,VWS V14.01,2013-04-12 12:54:00,
2013-04-12 08:59:00,28.1,26.1,29.66,East,96,15.0,20.0,92,0.00,,,0.00,VWS V14.01,2013-04-12 12:59:00,
2013-04-12 09:04:00,28.1,26.1,29.67,ESE,109,11.0,12.0,92,0.00,,,0.00,VWS V14.01,2013-04-12 13:04:00,
2013-04-12 09:09:00,28.1,25.8,29.66,ESE,110,11.0,14.0,91,0.00,,,0.00,VWS V14.01,2013-04-12 13:09:00,
2013-04-12 09:14:00,28.1,26.1,29.65,East,96,12.0,15.0,92,0.00,,,0.00,VWS V14.01,2013-04-12 13:14:00,
2013-04-12 09:19:00,28.2,26.2,29.65,ESE,121,11.0,13.0,92,0.00,,,0.00,VWS V14.01,2013-04-12 13:19:00,
2013-04-12 09:24:00,28.2,26.2,29.65,East,98,15.0,15.0,92,0.00,,,0.00,VWS V14.01,2013-04-12 13:24:00,
2013-04-12 09:29:00,28.3,26.0,29.66,ESE,105,14.0,14.0,91,0.00,,,0.00,VWS V14.01,2013-04-12 13:29:00,
2013-04-12 09:34:00,28.4,26.1,29.65,East,95,16.0,16.0,91,0.00,,,0.00,VWS V14.01,2013-04-12 13:34:00,
2013-04-12 09:39:00,28.4,26.1,29.65,ESE,111,14.0,14.0,91,0.00,,,0.00,VWS V14.01,2013-04-12 13:39:00,
2013-04-12 09:44:00,28.5,26.2,29.65,East,99,13.0,16.0,91,0.00,,,0.00,VWS V14.01,2013-04-12 13:44:00,
2013-04-12 09:49:00,28.4,26.1,29.65,East,92,13.0,14.0,91,0.00,,,0.00,VWS V14.01,2013-04-12 13:49:00,
2013-04-12 09:54:00,28.4,26.1,29.65,East,89,10.0,13.0,91,0.00,,,0.00,VWS V14.01,2013-04-12 13:54:00,
2013-04-12 09:59:00,28.4,26.1,29.65,ESE,107,9.0,13.0,91,0.00,,,0.00,VWS V14.01,2013-04-12 13:59:00,
2013-04-12 10:04:00,28.5,26.2,29.65,ESE,107,10.0,12.0,91,0.00,,,0.00,VWS V14.01,2013-04-12 14:04:00,
2013-04-12 10:09:00,28.5,26.2,29.65,East,92,9.0,17.0,91,0.00,,,0.00,VWS V14.01,2013-04-12 14:09:00,
2013-04-12 10:14:00,28.5,26.2,29.65,ESE,112,6.0,9.0,91,0.00,,,0.00,VWS V14.01,2013-04-12 14:14:00,
2013-04-12 10:19:00,28.6,26.0,29.65,ESE,109,9.0,12.0,90,0.00,,,0.00,VWS V14.01,2013-04-12 14:19:00,
2013-04-12 10:24:00,28.7,26.4,29.65,ESE,104,10.0,12.0,91,0.00,,,0.00,VWS V14.01,2013-04-12 14:24:00,
2013-04-12 10:29:00,28.8,26.2,29.64,East,101,15.0,23.0,90,0.00,,,0.00,VWS V14.01,2013-04-12 14:29:00,
2013-04-12 10:34:00,28.8,26.2,29.64,ESE,118,14.0,14.0,90,0.00,,,0.00,VWS V14.01,2013-04-12 14:34:00,
2013-04-12 10:39:00,28.9,26.3,29.65,ESE,103,13.0,13.0,90,0.00,,,0.00,VWS V14.01,2013-04-12 14:39:00,
2013-04-12 10:44:00,28.8,26.2,29.65,ESE,110,11.0,12.0,90,0.00,,,0.00,VWS V14.01,2013-04-12 14:44:00,
2013-04-12 10:49:00,28.8,26.2,29.65,ESE,109,16.0,16.0,90,0.00,,,0.00,VWS V14.01,2013-04-12 14:49:00,
2013-04-12 10:54:00,28.8,26.2,29.64,East,96,12.0,16.0,90,0.00,,,0.00,VWS V14.01,2013-04-12 14:54:00,
2013-04-12 10:59:00,28.9,26.3,29.64,East,96,13.0,15.0,90,0.00,,,0.00,VWS V14.01,2013-04-12 14:59:00,
2013-04-12 11:04:00,29.0,26.4,29.64,ESE,107,15.0,19.0,90,0.00,,,0.00,VWS V14.01,2013-04-12 15:04:00,
2013-04-12 11:09:00,28.9,26.3,29.65,East,86,20.0,22.0,90,0.00,,,0.00,VWS V14.01,2013-04-12 15:09:00,
2013-04-12 11:14:00,28.9,26.6,29.65,ESE,104,10.0,14.0,91,0.00,,,0.00,VWS V14.01,2013-04-12 15:14:00,
2013-04-12 11:19:00,28.9,26.6,29.65,East,96,15.0,17.0,91,0.00,,,0.00,VWS V14.01,2013-04-12 15:19:00,
2013-04-12 11:24:00,29.0,26.7,29.65,East,96,13.0,16.0,91,0.00,,,0.00,VWS V14.01,2013-04-12 15:24:00,
2013-04-12 11:29:00,29.0,26.7,29.65,East,94,15.0,16.0,91,0.00,,,0.00,VWS V14.01,2013-04-12 15:29:00,
2013-04-12 11:34:00,29.1,26.8,29.65,East,92,14.0,18.0,91,0.00,,,0.00,VWS V14.01,2013-04-12 15:34:00,
2013-04-12 11:39:00,29.2,26.9,29.65,ESE,117,15.0,18.0,91,0.00,,,0.00,VWS V14.01,2013-04-12 15:39:00,
2013-04-12 11:44:00,29.2,26.9,29.66,ESE,113,14.0,15.0,91,0.00,,,0.00,VWS V14.01,2013-04-12 15:44:00,
2013-04-12 11:49:00,29.4,27.1,29.66,SE,142,15.0,15.0,91,0.00,,,0.00,VWS V14.01,2013-04-12 15:49:00,
2013-04-12 11:55:00,29.5,27.2,29.66,ESE,110,11.0,12.0,91,0.00,,,0.00,VWS V14.01,2013-04-12 15:55:00,
2013-04-12 12:00:00,29.6,27.3,29.66,ENE,78,15.0,15.0,91,0.00,,,0.00,VWS V14.01,2013-04-12 16:00:00,
2013-04-12 12:05:00,29.7,27.4,29.66,ESE,103,13.0,16.0,91,0.00,,,0.00,VWS V14.01,2013-04-12 16:05:00,
2013-04-12 12:10:00,29.8,27.5,29.66,ESE,109,4.0,6.0,91,0.00,,,0.00,VWS V14.01,2013-04-12 16:10:00,
2013-04-12 12:15:00,29.8,27.5,29.66,East,99,13.0,13.0,91,0.00,,,0.00,VWS V14.01,2013-04-12 16:15:00,
2013-04-12 12:20:00,30.0,27.7,29.66,ESE,111,13.0,14.0,91,0.00,,,0.00,VWS V14.01,2013-04-12 16:20:00,
2013-04-12 12:25:00,30.2,27.9,29.66,SE,139,10.0,10.0,91,0.00,,,0.00,VWS V14.01,2013-04-12 16:25:00,
2013-04-12 12:30:00,30.3,28.0,29.65,ESE,116,7.0,9.0,91,0.00,,,0.00,VWS V14.01,2013-04-12 16:30:00,
2013-04-12 12:35:00,30.5,27.9,29.65,East,96,9.0,10.0,90,0.00,,,0.00,VWS V14.01,2013-04-12 16:35:00,
2013-04-12 12:40:00,30.6,28.0,29.65,ESE,103,10.0,12.0,90,0.00,,,0.00,VWS V14.01,2013-04-12 16:40:00,
2013-04-12 12:45:00,30.8,28.2,29.65,East,90,7.0,10.0,90,0.00,,,0.00,VWS V14.01,2013-04-12 16:45:00,
2013-04-12 12:50:00,30.9,28.3,29.65,East,92,10.0,12.0,90,0.00,,,0.00,VWS V14.01,2013-04-12 16:50:00,
2013-04-12 12:55:00,30.9,28.3,29.65,ESE,105,9.0,11.0,90,0.00,,,0.00,VWS V14.01,2013-04-12 16:55:00,
2013-04-12 13:00:00,31.0,28.1,29.65,East,85,10.0,13.0,89,0.00,,,0.00,VWS V14.01,2013-04-12 17:00:00,
2013-04-12 13:05:00,31.2,28.3,29.64,East,98,13.0,14.0,89,0.00,,,0.00,VWS V14.01,2013-04-12 17:05:00,
2013-04-12 13:10:00,31.3,28.4,29.64,East,95,16.0,16.0,89,0.00,,,0.00,VWS V14.01,2013-04-12 17:10:00,
2013-04-12 13:15:00,31.3,28.4,29.64,ESE,114,14.0,15.0,89,0.00,,,0.00,VWS V14.01,2013-04-12 17:15:00,
2013-04-12 13:20:00,31.5,28.4,29.64,East,91,12.0,17.0,88,0.00,,,0.00,VWS V14.01,2013-04-12 17:20:00,
2013-04-12 13:25:00,31.6,28.5,29.64,East,85,15.0,17.0,88,0.00,,,0.00,VWS V14.01,2013-04-12 17:25:00,
2013-04-12 13:30:00,31.7,28.6,29.64,East,97,15.0,18.0,88,0.00,,,0.00,VWS V14.01,2013-04-12 17:30:00,
2013-04-12 13:35:00,31.7,28.6,29.64,ESE,110,14.0,19.0,88,0.00,,,0.00,VWS V14.01,2013-04-12 17:35:00,
2013-04-12 13:40:00,31.9,28.8,29.63,East,81,9.0,9.0,88,0.00,,,0.00,VWS V14.01,2013-04-12 17:40:00,
2013-04-12 13:46:00,32.0,28.9,29.63,East,86,10.0,11.0,88,0.00,,,0.00,VWS V14.01,2013-04-12 17:46:00,
2013-04-12 13:51:00,32.0,28.6,29.63,ESE,113,9.0,10.0,87,0.00,,,0.00,VWS V14.01,2013-04-12 17:51:00,
2013-04-12 13:56:00,32.0,28.9,29.63,East,96,14.0,17.0,88,0.00,,,0.00,VWS V14.01,2013-04-12 17:56:00,
2013-04-12 14:01:00,31.9,28.5,29.64,East,98,9.0,13.0,87,0.00,,,0.00,VWS V14.01,2013-04-12 18:01:00,
2013-04-12 14:06:00,31.9,28.5,29.64,ESE,109,9.0,9.0,87,0.00,,,0.00,VWS V14.01,2013-04-12 18:06:00,
2013-04-12 14:11:00,32.1,28.7,29.64,East,94,7.0,12.0,87,0.00,,,0.00,VWS V14.01,2013-04-12 18:11:00,
2013-04-12 14:17:00,32.1,29.0,29.64,ESE,103,9.0,9.0,88,0.00,,,0.00,VWS V14.01,2013-04-12 18:17:00,
2013-04-12 14:23:00,32.3,29.1,29.64,ESE,104,8.0,10.0,88,0.00,,,0.00,VWS V14.01,2013-04-12 18:23:00,
2013-04-12 14:28:00,32.5,29.1,29.64,ESE,109,16.0,16.0,87,0.00,,,0.00,VWS V14.01,2013-04-12 18:28:00,
2013-04-12 15:26:00,32.5,28.2,29.64,East,100,11.0,11.0,84,0.00,,,0.00,VWS V14.01,2013-04-12 19:26:00,
2013-04-12 15:27:00,32.6,28.3,29.64,East,94,10.0,13.0,84,0.00,,,0.00,VWS V14.01,2013-04-12 19:27:00,
2013-04-12 15:32:00,32.6,28.3,29.65,ESE,118,9.0,13.0,84,0.00,,,0.00,VWS V14.01,2013-04-12 19:32:00,
2013-04-12 15:37:00,32.3,28.0,29.64,SE,128,13.0,13.0,84,0.00,,,0.00,VWS V14.01,2013-04-12 19:37:00,
2013-04-12 15:42:00,32.3,28.0,29.65,East,100,11.0,11.0,84,0.00,,,0.00,VWS V14.01,2013-04-12 19:42:00,
2013-04-12 15:47:00,32.3,28.0,29.65,ESE,106,14.0,14.0,84,0.00,,,0.00,VWS V14.01,2013-04-12 19:47:00,
2013-04-12 15:52:00,32.1,27.8,29.65,ENE,73,8.0,9.0,84,0.00,,,0.00,VWS V14.01,2013-04-12 19:52:00,
2013-04-12 15:57:00,32.1,28.1,29.65,ESE,107,8.0,13.0,85,0.00,,,0.00,VWS V14.01,2013-04-12 19:57:00,
2013-04-12 16:02:00,32.0,28.0,29.65,East,96,10.0,16.0,85,0.00,,,0.00,VWS V14.01,2013-04-12 20:02:00,
2013-04-12 16:07:00,32.0,28.0,29.65,East,98,11.0,11.0,85,0.00,,,0.00,VWS V14.01,2013-04-12 20:07:00,
2013-04-12 16:12:00,31.8,27.8,29.65,East,84,11.0,13.0,85,0.00,,,0.00,VWS V14.01,2013-04-12 20:12:00,
2013-04-12 16:17:00,31.7,28.0,29.65,ESE,106,12.0,16.0,86,0.00,,,0.00,VWS V14.01,2013-04-12 20:17:00,
2013-04-12 16:22:00,31.7,28.0,29.65,ESE,104,12.0,14.0,86,0.00,,,0.00,VWS V14.01,2013-04-12 20:22:00,
2013-04-12 16:27:00,31.7,28.0,29.65,East,94,13.0,15.0,86,0.00,,,0.00,VWS V14.01,2013-04-12 20:27:00,
2013-04-12 16:32:00,31.6,27.9,29.65,East,98,15.0,17.0,86,0.00,,,0.00,VWS V14.01,2013-04-12 20:32:00,
2013-04-12 16:37:00,31.6,27.9,29.65,SE,126,12.0,16.0,86,0.00,,,0.00,VWS V14.01,2013-04-12 20:37:00,
2013-04-12 16:42:00,31.7,28.0,29.65,ESE,107,15.0,15.0,86,0.00,,,0.00,VWS V14.01,2013-04-12 20:42:00,
2013-04-12 16:47:00,31.8,28.1,29.65,ESE,107,15.0,15.0,86,0.00,,,0.00,VWS V14.01,2013-04-12 20:47:00,
2013-04-12 16:52:00,31.8,28.4,29.65,ESE,115,11.0,15.0,87,0.00,,,0.00,VWS V14.01,2013-04-12 20:52:00,
2013-04-12 16:57:00,31.9,28.2,29.65,East,100,11.0,13.0,86,0.00,,,0.00,VWS V14.01,2013-04-12 20:57:00,
2013-04-12 17:02:00,32.0,28.3,29.65,ESE,109,9.0,10.0,86,0.00,,,0.00,VWS V14.01,2013-04-12 21:02:00,
2013-04-12 17:07:00,32.0,28.6,29.65,ESE,119,6.0,8.0,87,0.00,,,0.00,VWS V14.01,2013-04-12 21:07:00,
2013-04-12 17:12:00,32.0,28.3,29.65,East,92,8.0,11.0,86,0.00,,,0.00,VWS V14.01,2013-04-12 21:12:00,
2013-04-12 17:17:00,32.0,28.6,29.65,ESE,111,10.0,11.0,87,0.00,,,0.00,VWS V14.01,2013-04-12 21:17:00,
2013-04-12 17:22:00,32.0,28.3,29.65,ESE,120,9.0,9.0,86,0.00,,,0.00,VWS V14.01,2013-04-12 21:22:00,
2013-04-12 17:28:00,31.9,28.2,29.65,ESE,118,8.0,10.0,86,0.00,,,0.00,VWS V14.01,2013-04-12 21:28:00,
2013-04-12 17:32:00,31.9,28.5,29.65,ESE,109,7.0,8.0,87,0.00,,,0.00,VWS V14.01,2013-04-12 21:32:00,
2013-04-12 17:37:00,31.9,28.2,29.66,East,88,11.0,11.0,86,0.00,,,0.00,VWS V14.01,2013-04-12 21:37:00,
2013-04-12 17:43:00,31.9,28.2,29.65,ESE,103,9.0,9.0,86,0.00,,,0.00,VWS V14.01,2013-04-12 21:43:00,
2013-04-12 17:48:00,31.9,28.5,29.65,SE,124,11.0,12.0,87,0.00,,,0.00,VWS V14.01,2013-04-12 21:48:00,
2013-04-12 17:53:00,31.9,28.2,29.66,ESE,108,14.0,14.0,86,0.00,,,0.00,VWS V14.01,2013-04-12 21:53:00,
2013-04-12 17:58:00,31.8,28.1,29.66,ESE,117,11.0,11.0,86,0.00,,,0.00,VWS V14.01,2013-04-12 21:58:00,
2013-04-12 18:03:00,31.9,28.2,29.66,ESE,111,12.0,12.0,86,0.00,,,0.00,VWS V14.01,2013-04-12 22:03:00,
2013-04-12 18:08:00,31.8,28.1,29.66,ESE,121,12.0,14.0,86,0.00,,,0.00,VWS V14.01,2013-04-12 22:08:00,
2013-04-12 18:13:00,31.8,28.1,29.66,ESE,112,12.0,12.0,86,0.00,,,0.00,VWS V14.01,2013-04-12 22:13:00,
2013-04-12 18:18:00,31.7,28.0,29.66,SE,125,9.0,11.0,86,0.00,,,0.00,VWS V14.01,2013-04-12 22:18:00,
2013-04-12 18:23:00,31.7,28.0,29.67,East,92,13.0,16.0,86,0.00,,,0.00,VWS V14.01,2013-04-12 22:23:00,
2013-04-12 18:28:00,31.7,28.0,29.67,East,96,11.0,12.0,86,0.00,,,0.00,VWS V14.01,2013-04-12 22:28:00,
2013-04-12 18:33:00,31.6,28.2,29.67,ESE,109,11.0,13.0,87,0.00,,,0.00,VWS V14.01,2013-04-12 22:33:00,
2013-04-12 18:38:00,31.6,28.2,29.67,ESE,102,10.0,14.0,87,0.00,,,0.00,VWS V14.01,2013-04-12 22:38:00,
2013-04-12 18:43:00,31.6,28.2,29.67,East,98,9.0,13.0,87,0.00,,,0.00,VWS V14.01,2013-04-12 22:43:00,
2013-04-12 18:48:00,31.5,28.1,29.67,ESE,118,9.0,11.0,87,0.00,,,0.00,VWS V14.01,2013-04-12 22:48:00,
2013-04-12 18:53:00,31.4,28.3,29.67,East,100,7.0,10.0,88,0.00,,,0.00,VWS V14.01,2013-04-12 22:53:00,
2013-04-12 18:58:00,31.3,28.2,29.67,ESE,113,8.0,9.0,88,0.00,,,0.00,VWS V14.01,2013-04-12 22:58:00,
2013-04-12 19:03:00,31.3,28.2,29.67,SE,125,7.0,7.0,88,0.00,,OVC017,0.00,VWS V14.01,2013-04-12 23:03:00,
2013-04-12 19:08:00,31.3,28.4,29.68,SE,134,7.0,14.0,89,0.00,,OVC017,0.00,VWS V14.01,2013-04-12 23:08:00,
2013-04-12 19:13:00,31.2,28.3,29.68,ESE,102,13.0,13.0,89,0.00,,OVC017,0.00,VWS V14.01,2013-04-12 23:13:00,
2013-04-12 19:18:00,31.2,28.3,29.68,SE,126,10.0,12.0,89,0.00,,OVC017,0.00,VWS V14.01,2013-04-12 23:18:00,
2013-04-12 19:23:00,31.1,28.2,29.68,ESE,103,8.0,9.0,89,0.00,,OVC017,0.00,VWS V14.01,2013-04-12 23:23:00,
2013-04-12 19:28:00,31.1,28.2,29.68,SE,130,7.0,10.0,89,0.00,,OVC017,0.00,VWS V14.01,2013-04-12 23:28:00,
2013-04-12 19:33:00,31.0,28.4,29.68,ESE,112,8.0,9.0,90,0.00,,OVC017,0.00,VWS V14.01,2013-04-12 23:33:00,
2013-04-12 19:38:00,31.0,28.4,29.67,ESE,105,7.0,8.0,90,0.00,,OVC017,0.00,VWS V14.01,2013-04-12 23:38:00,
2013-04-12 19:43:00,30.9,28.3,29.67,SE,128,5.0,8.0,90,0.00,,OVC017,0.00,VWS V14.01,2013-04-12 23:43:00,
2013-04-12 19:48:00,30.8,28.2,29.67,ESE,102,8.0,10.0,90,0.00,,OVC017,0.00,VWS V14.01,2013-04-12 23:48:00,
2013-04-12 19:53:00,30.8,28.2,29.67,ESE,103,4.0,7.0,90,0.00,,OVC017,0.00,VWS V14.01,2013-04-12 23:53:00,
2013-04-12 19:58:00,30.7,28.1,29.68,SE,134,9.0,9.0,90,0.00,,OVC017,0.00,VWS V14.01,2013-04-12 23:58:00,
2013-04-12 20:03:00,30.7,28.1,29.68,East,100,7.0,8.0,90,0.00,,,0.00,VWS V14.01,2013-04-13 00:03:00,
2013-04-12 20:08:00,30.7,28.1,29.68,ESE,114,4.0,7.0,90,0.00,,,0.00,VWS V14.01,2013-04-13 00:08:00,
2013-04-12 20:13:00,30.7,28.4,29.68,ESE,112,10.0,11.0,91,0.00,,,0.00,VWS V14.01,2013-04-13 00:13:00,
2013-04-12 20:18:00,30.7,28.4,29.67,ESE,109,10.0,12.0,91,0.00,,,0.00,VWS V14.01,2013-04-13 00:18:00,
2013-04-12 20:23:00,30.7,28.4,29.68,ESE,114,7.0,7.0,91,0.00,,,0.00,VWS V14.01,2013-04-13 00:23:00,
2013-04-12 20:28:00,30.7,28.4,29.68,ESE,116,7.0,8.0,91,0.00,,,0.00,VWS V14.01,2013-04-13 00:28:00,
2013-04-12 20:33:00,30.6,28.3,29.68,ESE,107,8.0,9.0,91,0.00,,,0.00,VWS V14.01,2013-04-13 00:33:00,
2013-04-12 20:38:00,30.6,28.3,29.68,ESE,108,6.0,6.0,91,0.00,,,0.00,VWS V14.01,2013-04-13 00:38:00,
2013-04-12 20:43:00,30.6,28.3,29.68,ESE,121,5.0,7.0,91,0.00,,,0.00,VWS V14.01,2013-04-13 00:43:00,
2013-04-12 20:48:00,30.6,28.3,29.68,ESE,108,4.0,7.0,91,0.00,,,0.00,VWS V14.01,2013-04-13 00:48:00,
2013-04-12 20:53:00,30.6,28.3,29.68,ESE,107,4.0,6.0,91,0.00,,,0.00,VWS V14.01,2013-04-13 00:53:00,
2013-04-12 20:58:00,30.6,28.3,29.68,ESE,105,6.0,7.0,91,0.00,,,0.00,VWS V14.01,2013-04-13 00:58:00,
2013-04-12 21:04:00,30.5,28.5,29.68,ESE,121,4.0,6.0,92,0.00,,,0.00,VWS V14.01,2013-04-13 01:04:00,
2013-04-12 21:09:00,30.5,28.5,29.68,ESE,123,8.0,10.0,92,0.00,,,0.00,VWS V14.01,2013-04-13 01:09:00,
2013-04-12 21:14:00,30.5,28.5,29.68,ESE,113,8.0,9.0,92,0.00,,,0.00,VWS V14.01,2013-04-13 01:14:00,
2013-04-12 21:19:00,30.5,28.5,29.68,East,101,6.0,6.0,92,0.00,,,0.00,VWS V14.01,2013-04-13 01:19:00,
2013-04-12 21:24:00,30.5,28.5,29.68,ESE,120,7.0,7.0,92,0.00,,,0.00,VWS V14.01,2013-04-13 01:24:00,